Etusivu
METAR-TAF:

METAR-TAF

Lentoasemat :

Ann Arbor, Michigan, Yhdysvallat

Leveyspiiri: 42-13-26N, Pituuspiiri: 083-44-24W, korkeus merenpinnasta: 255 m

Tämänhetkinen sää

Tämä raportti tehtiin 1 tunti ja 0 minuuttia sitten, kello 09.53 UTC
Tuuli 17 kn pohjoisesta puuskistuen 23 kn:hen
Lämpötila 4°C
Kosteus 87%
Ilmanpaine 1004 hPa
Näkyvyys: 16.1 km
Pilvistä 1100 ft:n korkeudessa

METAR: KARB 200953Z AUTO 36017G23KT 10SM OVC011 04/02 A2965 RMK AO2 PK WND 36027/0935 SLP044 T00390022

Aika: 06:53 (10:53 UTC)


TAF: puuttuu

Säähavainnot ja -ennusteet yli 4000 lentoasemalta (METAR- ja TAF-raportit).

Käytössä olevat sääasemat on merkitty karttaan keltaisilla ja punaisilla pisteillä.

Aseta hiiri pisteen päälle nähdäksesi sääaseman nimen.

Klikkaa sitten nähdäksesi säähavainnot ja -ennusteet.

Kartan vaihtaminen: klikkaa mustalla rastilla varustettuja vihreitä pisteitä, niin voit zoomata sisään; viivalla varustettua vihreää pistettä, niin voit zoomata ulos tai vihreitä nuolia, niin pääset viereisille kartoille.


METAR-TAF: